Malabo, Equatorial Guinea
Current Conditions -  °F | °C
As of 9:00 AM on Thursday 23 Oct 2014 (Local Time) from FKKD Reporting Station
Broken Clouds Broken Clouds  
Wind Chill: 28°   Ceiling: 1300
Heat Index: 33°   Visibility: 6mi
Dew Point: 25°   Wind: 0mph
Humidity: 84%   Direction: NA
Pressure: 29.94"   Gusts: NA
Location:  3.74°N, 8.79°E
Report Text: FKKD 230800Z 00000KT 9999 BKN013 FEW016CB 28/25 Q1014 RETSBECMG BKN016 FEW020CB
Loading
Personal Weather Stations






























Interactive Weather Map
Tropical Storm Tracking
New forecast layout! Learn more

10-Day Weather Forecast

Advertisements
Track Severe Weather on mobile